createdAt,value
2019-02-25T00:01:28.737Z,56.88
2019-02-25T00:03:59.306Z,56.94
2019-02-25T00:06:30.447Z,57.00
2019-02-25T00:09:00.969Z,57.14
2019-02-25T00:11:31.469Z,57.36
2019-02-25T00:14:02.045Z,57.57
2019-02-25T00:16:32.569Z,57.17
2019-02-25T00:19:03.105Z,56.69
2019-02-25T00:21:34.031Z,56.27
2019-02-25T00:24:04.439Z,55.89
2019-02-25T00:26:34.769Z,56.63
2019-02-25T00:29:05.292Z,56.85
2019-02-25T00:31:35.739Z,56.82
2019-02-25T00:34:06.069Z,57.36
2019-02-25T00:36:38.122Z,57.38
2019-02-25T00:39:09.744Z,57.88
2019-02-25T00:41:40.569Z,57.70
2019-02-25T00:44:11.000Z,57.72
2019-02-25T00:46:41.427Z,57.82
2019-02-25T00:49:11.827Z,57.78
2019-02-25T00:51:42.319Z,57.68
2019-02-25T00:54:12.845Z,58.17
2019-02-25T00:56:43.278Z,58.37
2019-02-25T00:59:13.711Z,58.71
2019-02-25T01:01:45.806Z,58.93
2019-02-25T01:04:16.314Z,58.89
2019-02-25T01:06:46.751Z,58.38
2019-02-25T01:09:17.113Z,58.55
2019-02-25T01:11:47.553Z,58.72
2019-02-25T01:14:18.098Z,58.99
2019-02-25T01:16:48.533Z,59.20
2019-02-25T01:19:18.856Z,58.71
2019-02-25T01:21:49.293Z,58.57
2019-02-25T01:24:19.891Z,59.13
2019-02-25T01:26:50.343Z,58.92
2019-02-25T01:29:20.823Z,59.09
2019-02-25T01:31:51.249Z,59.12
2019-02-25T01:34:21.689Z,59.16
2019-02-25T01:36:52.087Z,59.49
2019-02-25T01:39:22.564Z,59.19
2019-02-25T01:41:53.015Z,59.70
2019-02-25T01:44:23.470Z,59.95
2019-02-25T01:46:53.840Z,60.22
2019-02-25T01:49:24.220Z,59.67
2019-02-25T01:51:54.599Z,59.50
2019-02-25T01:54:24.880Z,59.73
2019-02-25T01:56:55.180Z,59.56
2019-02-25T01:59:25.442Z,59.91
2019-02-25T02:01:55.927Z,59.66
2019-02-25T02:04:26.401Z,59.17
2019-02-25T02:06:56.852Z,59.36
2019-02-25T02:09:27.301Z,59.58
2019-02-25T02:11:57.690Z,59.51
2019-02-25T02:14:28.018Z,59.31
2019-02-25T02:16:58.462Z,59.03
2019-02-25T02:19:28.817Z,58.68
2019-02-25T02:21:59.271Z,58.30
2019-02-25T02:24:29.772Z,57.97
2019-02-25T02:27:00.149Z,57.47
2019-02-25T02:29:30.565Z,57.49
2019-02-25T02:32:01.055Z,58.20
2019-02-25T02:34:31.607Z,58.43
2019-02-25T02:37:01.915Z,58.50
2019-02-25T02:39:32.265Z,58.34
2019-02-25T02:42:37.084Z,57.92
2019-02-25T02:45:26.848Z,58.01
2019-02-25T02:48:05.042Z,58.35
2019-02-25T02:50:35.519Z,58.62
2019-02-25T02:53:05.881Z,58.10
2019-02-25T02:55:36.279Z,57.97
2019-02-25T02:58:06.707Z,57.01
2019-02-25T03:00:37.081Z,56.50
2019-02-25T03:03:07.629Z,57.43
2019-02-25T03:05:37.959Z,58.64
2019-02-25T03:08:08.378Z,59.53
2019-02-25T03:10:38.741Z,59.96
2019-02-25T03:13:09.117Z,59.65
2019-02-25T03:15:39.551Z,59.39
2019-02-25T03:18:09.971Z,59.52
2019-02-25T03:20:40.374Z,58.54
2019-02-25T03:23:10.781Z,59.12
2019-02-25T03:25:41.335Z,59.74
2019-02-25T03:28:11.729Z,60.08
2019-02-25T03:30:42.223Z,59.45
2019-02-25T03:33:12.551Z,59.12
2019-02-25T03:35:42.977Z,60.29
2019-02-25T03:38:13.564Z,60.33
2019-02-25T03:40:44.006Z,60.76
2019-02-25T03:43:14.453Z,60.58
2019-02-25T03:45:44.845Z,60.87
2019-02-25T03:48:15.219Z,60.78
2019-02-25T03:50:45.632Z,60.54
2019-02-25T03:53:16.065Z,60.99
2019-02-25T03:55:46.365Z,61.18
2019-02-25T03:58:16.787Z,60.65
2019-02-25T04:00:47.122Z,60.75
2019-02-25T04:03:17.579Z,60.51
2019-02-25T04:05:47.944Z,60.89
2019-02-25T04:08:18.424Z,60.87
2019-02-25T04:10:48.902Z,61.21
2019-02-25T04:13:19.365Z,60.60
2019-02-25T04:15:49.774Z,60.88
2019-02-25T04:18:20.142Z,60.82
2019-02-25T04:20:50.528Z,61.49
2019-02-25T04:23:21.011Z,61.75
2019-02-25T04:25:51.494Z,61.90
2019-02-25T04:28:21.814Z,61.70
2019-02-25T04:30:52.297Z,62.19
2019-02-25T04:33:22.700Z,62.81
2019-02-25T04:35:53.175Z,62.67
2019-02-25T04:38:23.559Z,62.83
2019-02-25T04:40:53.934Z,63.01
2019-02-25T04:43:24.277Z,62.90
2019-02-25T04:45:54.733Z,62.98
2019-02-25T04:48:25.174Z,62.88
2019-02-25T04:50:55.682Z,62.88
2019-02-25T04:53:26.104Z,62.83
2019-02-25T04:55:56.464Z,63.16
2019-02-25T04:58:26.858Z,62.45
2019-02-25T05:00:57.238Z,61.96
2019-02-25T05:03:27.664Z,61.85
2019-02-25T05:05:58.123Z,61.99
2019-02-25T05:08:28.599Z,62.00
2019-02-25T05:10:59.106Z,61.75
2019-02-25T05:13:29.449Z,61.50
2019-02-25T05:15:59.938Z,61.14
2019-02-25T05:18:30.239Z,61.56
2019-02-25T05:21:00.492Z,61.70
2019-02-25T05:23:30.948Z,61.31
2019-02-25T05:26:01.408Z,61.35
2019-02-25T05:28:31.842Z,61.40
2019-02-25T05:31:02.292Z,60.95
2019-02-25T05:33:32.712Z,60.99
2019-02-25T05:36:03.130Z,61.19
2019-02-25T05:38:33.459Z,60.98
2019-02-25T05:41:03.839Z,61.48
2019-02-25T05:43:34.280Z,61.63
2019-02-25T05:46:04.706Z,61.50
2019-02-25T05:48:35.174Z,61.72
2019-02-25T05:51:05.636Z,61.65
2019-02-25T05:53:36.158Z,62.08
2019-02-25T05:56:06.654Z,62.35
2019-02-25T05:58:37.100Z,62.08
2019-02-25T06:01:07.504Z,62.22
2019-02-25T06:03:38.023Z,62.54
2019-02-25T06:06:08.413Z,61.34
2019-02-25T06:08:38.757Z,61.39
2019-02-25T06:11:09.300Z,61.68
2019-02-25T06:13:39.827Z,61.69
2019-02-25T06:16:10.282Z,61.88
2019-02-25T06:18:40.785Z,61.52
2019-02-25T06:21:11.672Z,61.36
2019-02-25T06:23:42.747Z,61.89
2019-02-25T06:26:13.223Z,61.88
2019-02-25T06:28:43.704Z,61.04
2019-02-25T06:31:14.369Z,61.11
2019-02-25T06:33:47.426Z,61.12
2019-02-25T06:36:17.375Z,61.51
2019-02-25T06:38:47.858Z,61.10
2019-02-25T06:41:18.330Z,61.05
2019-02-25T06:43:48.773Z,61.17
2019-02-25T06:46:19.068Z,60.82
2019-02-25T06:48:49.576Z,60.04
2019-02-25T06:51:19.889Z,59.76
2019-02-25T06:53:50.230Z,60.34
2019-02-25T06:56:20.676Z,60.56
2019-02-25T06:58:50.897Z,60.73
2019-02-25T07:01:21.301Z,60.72
2019-02-25T07:04:10.520Z,60.17
2019-02-25T07:06:52.603Z,60.37
2019-02-25T07:09:41.795Z,59.91
2019-02-25T07:12:17.419Z,60.04
2019-02-25T07:15:07.488Z,59.56
2019-02-25T07:17:49.374Z,60.04
2019-02-25T07:20:44.058Z,58.89
2019-02-25T07:23:23.238Z,59.21
2019-02-25T07:26:15.504Z,59.14
2019-02-25T07:29:17.083Z,59.38
2019-02-25T07:32:05.312Z,59.56
2019-02-25T07:35:00.950Z,58.94
2019-02-25T07:37:57.369Z,59.40
2019-02-25T07:40:46.666Z,58.89
2019-02-25T07:43:34.402Z,57.65
2019-02-25T07:46:23.597Z,54.68
2019-02-25T07:49:24.981Z,52.51
2019-02-25T07:52:13.224Z,51.11
2019-02-25T07:55:00.898Z,50.58
2019-02-25T07:57:59.035Z,50.46
2019-02-25T08:00:36.776Z,47.67
2019-02-25T08:03:35.229Z,46.75
2019-02-25T08:06:20.234Z,45.44
2019-02-25T08:09:04.461Z,45.75
2019-02-25T08:11:53.848Z,41.66
2019-02-25T08:14:41.955Z,39.73
2019-02-25T08:17:35.413Z,36.96
2019-02-25T08:20:23.781Z,33.99
2019-02-25T08:23:13.197Z,31.38
2019-02-25T08:26:11.709Z,28.52
2019-02-25T08:29:06.967Z,26.33
2019-02-25T08:31:56.014Z,26.00
2019-02-25T08:34:55.649Z,25.50
2019-02-25T08:38:29.749Z,25.45
2019-02-25T08:41:24.639Z,25.42
2019-02-25T08:44:05.005Z,25.04
2019-02-25T08:47:03.587Z,24.94
2019-02-25T08:49:50.147Z,24.95
2019-02-25T08:52:20.922Z,24.80
2019-02-25T08:54:54.153Z,24.37
2019-02-25T08:57:24.671Z,24.26
2019-02-25T08:59:55.358Z,23.55
2019-02-25T09:02:27.126Z,22.87
2019-02-25T09:04:57.798Z,21.96
2019-02-25T09:07:28.709Z,21.68
2019-02-25T09:09:59.708Z,21.01
2019-02-25T09:12:30.176Z,21.20
2019-02-25T09:15:00.634Z,21.04
2019-02-25T09:17:31.298Z,21.35
2019-02-25T09:20:04.625Z,21.21
2019-02-25T09:22:35.258Z,20.78
2019-02-25T09:25:08.108Z,19.82
2019-02-25T09:27:39.055Z,18.98
2019-02-25T09:30:15.531Z,18.81
2019-02-25T09:32:46.259Z,18.11
2019-02-25T09:35:17.175Z,18.12
2019-02-25T09:37:47.737Z,17.82
2019-02-25T09:40:18.148Z,18.14
2019-02-25T09:42:48.528Z,17.73
2019-02-25T09:45:19.028Z,17.23
2019-02-25T09:47:49.514Z,17.81
2019-02-25T09:50:19.998Z,17.59
2019-02-25T09:52:50.593Z,16.01
2019-02-25T09:55:21.126Z,16.09
2019-02-25T09:57:53.580Z,16.49
2019-02-25T10:00:23.971Z,15.99
2019-02-25T10:02:54.406Z,16.14
2019-02-25T10:05:24.953Z,16.65
2019-02-25T10:07:55.467Z,17.25
2019-02-25T10:10:25.967Z,16.66
2019-02-25T10:12:56.614Z,17.02
2019-02-25T10:15:29.632Z,15.25
2019-02-25T10:18:01.776Z,15.35
2019-02-25T10:20:32.765Z,16.10
2019-02-25T10:23:03.447Z,15.21
2019-02-25T10:25:33.980Z,14.69
2019-02-25T10:28:04.471Z,15.93
2019-02-25T10:30:34.848Z,16.38
2019-02-25T10:33:05.353Z,16.88
2019-02-25T10:35:35.665Z,17.37
2019-02-25T10:38:06.385Z,15.55
2019-02-25T10:40:36.852Z,17.28
2019-02-25T10:43:07.826Z,17.22
2019-02-25T10:45:43.155Z,17.63
2019-02-25T10:48:15.096Z,18.65
2019-02-25T10:50:45.819Z,19.27
2019-02-25T10:53:18.315Z,20.98
2019-02-25T10:56:02.869Z,21.74
2019-02-25T10:58:35.784Z,21.86
2019-02-25T11:01:08.549Z,22.87
2019-02-25T11:03:39.216Z,23.31
2019-02-25T11:06:09.695Z,24.01
2019-02-25T11:08:43.546Z,24.28
2019-02-25T11:11:21.055Z,25.45
2019-02-25T11:13:52.334Z,26.77
2019-02-25T11:16:22.767Z,26.04
2019-02-25T11:18:55.088Z,26.94
2019-02-25T11:21:25.624Z,26.75
2019-02-25T11:23:55.909Z,27.12
2019-02-25T11:26:28.369Z,27.19
2019-02-25T11:28:58.427Z,28.18
2019-02-25T11:31:29.224Z,29.03
2019-02-25T11:34:00.653Z,29.98
2019-02-25T11:36:31.813Z,30.44
2019-02-25T11:39:02.934Z,30.77
2019-02-25T11:41:36.449Z,31.00
2019-02-25T11:44:06.796Z,30.91
2019-02-25T11:46:37.530Z,32.06
2019-02-25T11:49:10.871Z,31.67
2019-02-25T11:51:41.324Z,31.62
2019-02-25T11:54:14.568Z,31.87
2019-02-25T11:56:44.881Z,31.42
2019-02-25T11:59:15.183Z,31.64
2019-02-25T12:01:45.715Z,31.29
2019-02-25T12:04:16.084Z,31.10
2019-02-25T12:06:46.477Z,30.52
2019-02-25T12:09:17.407Z,29.77
2019-02-25T12:11:50.651Z,28.92
2019-02-25T12:14:22.886Z,28.54
2019-02-25T12:16:53.333Z,27.44
2019-02-25T12:19:23.666Z,26.42
2019-02-25T12:21:54.142Z,25.65
2019-02-25T12:24:24.426Z,25.07
2019-02-25T12:26:54.835Z,23.81
2019-02-25T12:29:25.312Z,23.93
2019-02-25T12:31:55.772Z,23.01
2019-02-25T12:34:26.236Z,23.21
2019-02-25T12:36:56.630Z,23.25
2019-02-25T12:39:27.094Z,22.42
2019-02-25T12:42:00.671Z,23.53
2019-02-25T12:44:34.128Z,22.97
2019-02-25T12:47:04.697Z,22.73
2019-02-25T12:49:35.150Z,23.47
2019-02-25T12:52:05.679Z,22.84
2019-02-25T12:54:36.074Z,23.28
2019-02-25T12:57:06.515Z,23.27
2019-02-25T12:59:37.096Z,23.06
2019-02-25T13:02:07.861Z,22.43
2019-02-25T13:04:39.953Z,22.53
2019-02-25T13:07:10.814Z,22.83
2019-02-25T13:09:41.561Z,22.71
2019-02-25T13:12:12.050Z,22.53
2019-02-25T13:14:42.481Z,22.02
2019-02-25T13:17:12.829Z,21.34
2019-02-25T13:19:43.144Z,21.05
2019-02-25T13:22:13.616Z,21.62
2019-02-25T13:24:44.066Z,20.52
2019-02-25T13:27:14.497Z,20.05
2019-02-25T13:29:44.765Z,20.51
2019-02-25T13:32:15.393Z,21.03
2019-02-25T13:34:45.825Z,21.87
2019-02-25T13:37:16.319Z,23.38
2019-02-25T13:39:46.750Z,24.46
2019-02-25T13:42:17.247Z,25.90
2019-02-25T13:44:47.655Z,27.55
2019-02-25T13:47:18.128Z,28.86
2019-02-25T13:49:48.650Z,29.52
2019-02-25T13:52:19.066Z,30.59
2019-02-25T13:54:49.434Z,32.50
2019-02-25T13:57:20.019Z,32.44
2019-02-25T13:59:50.478Z,33.62
2019-02-25T14:02:20.828Z,34.44
2019-02-25T14:04:51.365Z,34.17
2019-02-25T14:07:22.060Z,34.26
2019-02-25T14:09:52.562Z,34.97
2019-02-25T14:12:23.005Z,35.30
2019-02-25T14:14:53.312Z,35.44
2019-02-25T14:17:23.677Z,36.24
2019-02-25T14:19:54.629Z,37.32
2019-02-25T14:22:25.029Z,37.28
2019-02-25T14:24:55.524Z,36.65
2019-02-25T14:27:27.140Z,36.71
2019-02-25T14:29:58.189Z,36.32
2019-02-25T14:32:30.030Z,36.41
2019-02-25T14:35:00.660Z,36.25
2019-02-25T14:37:31.431Z,36.92
2019-02-25T14:40:04.158Z,37.04
2019-02-25T14:42:36.366Z,37.15
2019-02-25T14:45:09.459Z,37.50
2019-02-25T14:47:42.036Z,37.93
2019-02-25T14:50:15.621Z,38.44
2019-02-25T14:52:46.676Z,38.76
2019-02-25T14:55:17.586Z,39.06
2019-02-25T14:57:48.271Z,39.57
2019-02-25T15:00:25.859Z,39.44
2019-02-25T15:02:56.063Z,39.65
2019-02-25T15:05:26.728Z,39.79
2019-02-25T15:07:57.413Z,39.99
2019-02-25T15:10:29.675Z,40.45
2019-02-25T15:13:02.145Z,40.29
2019-02-25T15:15:34.650Z,40.52
2019-02-25T15:18:04.952Z,41.11
2019-02-25T15:20:36.132Z,41.23
2019-02-25T15:23:07.583Z,41.66
2019-02-25T15:25:42.074Z,41.90
2019-02-25T15:28:11.951Z,42.47
2019-02-25T15:30:42.896Z,42.69
2019-02-25T15:33:13.644Z,42.94
2019-02-25T15:35:44.265Z,43.31
2019-02-25T15:38:15.105Z,43.82
2019-02-25T15:40:46.097Z,43.80
2019-02-25T15:43:21.320Z,44.04
2019-02-25T15:45:52.758Z,44.46
2019-02-25T15:48:23.927Z,44.86
2019-02-25T15:50:58.633Z,44.60
2019-02-25T15:53:29.751Z,44.57
2019-02-25T15:56:01.425Z,44.89
2019-02-25T15:58:32.968Z,44.41
2019-02-25T16:01:03.673Z,44.49
2019-02-25T16:03:36.651Z,44.66
2019-02-25T16:06:10.598Z,44.85
2019-02-25T16:08:41.194Z,45.39
2019-02-25T16:11:14.043Z,45.34
2019-02-25T16:13:45.322Z,46.00
2019-02-25T16:16:19.840Z,46.38
2019-02-25T16:18:50.164Z,46.92
2019-02-25T16:21:24.437Z,47.40
2019-02-25T16:23:59.304Z,47.80
2019-02-25T16:26:32.526Z,48.23
2019-02-25T16:29:06.081Z,48.77
2019-02-25T16:31:37.605Z,49.04
2019-02-25T16:34:09.964Z,49.36
2019-02-25T16:36:45.201Z,49.64
2019-02-25T16:39:14.863Z,49.97
2019-02-25T16:41:46.115Z,50.30
2019-02-25T16:44:17.520Z,50.68
2019-02-25T16:46:49.043Z,50.96
2019-02-25T16:49:20.354Z,51.68
2019-02-25T16:51:51.480Z,51.79
2019-02-25T16:54:25.112Z,52.41
2019-02-25T16:56:57.293Z,53.06
2019-02-25T16:59:27.539Z,53.58
2019-02-25T17:02:00.106Z,54.33
2019-02-25T17:04:31.879Z,54.70
2019-02-25T17:07:02.345Z,55.08
2019-02-25T17:09:34.154Z,55.49
2019-02-25T17:12:06.482Z,56.01
2019-02-25T17:14:40.079Z,56.35
2019-02-25T17:17:09.704Z,56.71
2019-02-25T17:19:41.207Z,56.66
2019-02-25T17:22:12.252Z,56.92
2019-02-25T17:24:42.969Z,57.25
2019-02-25T17:27:14.687Z,57.43
2019-02-25T17:29:46.346Z,57.52
2019-02-25T17:32:19.408Z,57.25
2019-02-25T17:34:51.141Z,57.26
2019-02-25T17:37:22.324Z,57.32
2019-02-25T17:39:54.507Z,58.90
2019-02-25T17:42:26.432Z,60.59
2019-02-25T17:44:57.676Z,60.34
2019-02-25T17:47:32.571Z,59.68
2019-02-25T17:50:03.992Z,59.93
2019-02-25T17:52:33.959Z,60.43
2019-02-25T17:55:10.144Z,60.44
2019-02-25T17:57:41.003Z,60.94
2019-02-25T18:00:18.655Z,61.26
2019-02-25T18:02:49.360Z,61.18
2019-02-25T18:05:21.229Z,60.65
2019-02-25T18:07:53.084Z,60.54
2019-02-25T18:10:25.152Z,60.74
2019-02-25T18:12:59.064Z,61.56
2019-02-25T18:15:33.019Z,61.77
2019-02-25T18:18:06.989Z,62.45
2019-02-25T18:20:39.023Z,62.39
2019-02-25T18:23:10.352Z,61.93
2019-02-25T18:25:41.775Z,61.65
2019-02-25T18:28:13.565Z,61.43
2019-02-25T18:30:45.814Z,61.75
2019-02-25T18:33:19.104Z,61.51
2019-02-25T18:35:49.596Z,61.64
2019-02-25T18:38:21.121Z,61.91
2019-02-25T18:40:52.610Z,61.98
2019-02-25T18:43:24.307Z,62.03
2019-02-25T18:45:56.265Z,62.35
2019-02-25T18:48:27.475Z,62.52
2019-02-25T18:50:59.581Z,62.46
2019-02-25T18:53:30.838Z,62.60
2019-02-25T18:56:01.393Z,63.36
2019-02-25T18:58:33.612Z,63.24
2019-02-25T19:01:04.476Z,63.36
2019-02-25T19:03:35.460Z,63.36
2019-02-25T19:06:06.256Z,63.62
2019-02-25T19:08:36.771Z,63.79
2019-02-25T19:11:07.309Z,63.54
2019-02-25T19:13:37.759Z,64.88
2019-02-25T19:16:08.352Z,65.53
2019-02-25T19:18:41.336Z,65.76
2019-02-25T19:21:11.151Z,65.40
2019-02-25T19:23:42.295Z,65.86
2019-02-25T19:26:15.373Z,65.54
2019-02-25T19:28:48.089Z,65.25
2019-02-25T19:31:18.448Z,64.88
2019-02-25T19:33:48.853Z,64.81
2019-02-25T19:36:19.683Z,65.12
2019-02-25T19:38:50.328Z,65.89
2019-02-25T19:41:22.918Z,66.12
2019-02-25T19:43:59.104Z,66.25
2019-02-25T19:46:28.199Z,66.32
2019-02-25T19:48:58.541Z,66.12
2019-02-25T19:51:29.812Z,66.09
2019-02-25T19:54:02.604Z,66.27
2019-02-25T19:56:32.476Z,65.82
2019-02-25T19:59:03.796Z,66.38
2019-02-25T20:01:35.263Z,66.36
2019-02-25T20:04:07.053Z,66.84
2019-02-25T20:06:38.224Z,66.69
2019-02-25T20:09:08.979Z,66.74
2019-02-25T20:11:39.669Z,66.65
2019-02-25T20:14:11.035Z,66.61
2019-02-25T20:16:41.434Z,66.66
2019-02-25T20:19:11.875Z,66.37
2019-02-25T20:21:42.388Z,66.69
2019-02-25T20:24:14.697Z,66.34
2019-02-25T20:26:48.591Z,66.44
2019-02-25T20:29:17.384Z,66.83
2019-02-25T20:31:49.629Z,67.14
2019-02-25T20:34:20.705Z,67.60
2019-02-25T20:36:53.065Z,68.55
2019-02-25T20:39:24.578Z,68.32
2019-02-25T20:41:57.056Z,68.28
2019-02-25T20:44:28.516Z,68.06
2019-02-25T20:47:00.148Z,68.40
2019-02-25T20:49:31.867Z,68.92
2019-02-25T20:52:02.371Z,69.06
2019-02-25T20:54:32.758Z,69.57
2019-02-25T20:57:03.209Z,69.89
2019-02-25T20:59:34.871Z,70.06
2019-02-25T21:02:09.666Z,69.72
2019-02-25T21:04:38.680Z,69.81
2019-02-25T21:07:11.488Z,69.87
2019-02-25T21:09:42.243Z,69.42
2019-02-25T21:12:15.067Z,68.75
2019-02-25T21:14:45.132Z,68.71
2019-02-25T21:17:16.493Z,68.31
2019-02-25T21:19:47.131Z,68.46
2019-02-25T21:22:17.620Z,69.20
2019-02-25T21:24:49.489Z,69.69
2019-02-25T21:27:20.113Z,70.25
2019-02-25T21:29:52.910Z,70.96
2019-02-25T21:32:24.170Z,71.00
2019-02-25T21:34:56.007Z,70.82
2019-02-25T21:37:27.718Z,70.00
2019-02-25T21:40:00.880Z,69.75
2019-02-25T21:42:31.424Z,69.92
2019-02-25T21:45:02.279Z,70.80
2019-02-25T21:47:35.068Z,71.70
2019-02-25T21:50:07.423Z,71.71
2019-02-25T21:52:38.971Z,71.53
2019-02-25T21:55:11.723Z,71.66
2019-02-25T21:57:42.368Z,71.38
2019-02-25T22:00:17.055Z,71.39
2019-02-25T22:02:50.329Z,71.07
2019-02-25T22:05:21.299Z,71.97
2019-02-25T22:07:55.366Z,71.28
2019-02-25T22:10:26.179Z,70.46
2019-02-25T22:12:56.626Z,70.35
2019-02-25T22:15:26.992Z,69.52
2019-02-25T22:17:57.420Z,69.65
2019-02-25T22:20:27.877Z,69.10
2019-02-25T22:22:59.221Z,68.86
2019-02-25T22:25:30.427Z,69.19
2019-02-25T22:28:01.695Z,68.99
2019-02-25T22:30:32.976Z,69.48
2019-02-25T22:33:04.913Z,70.03
2019-02-25T22:35:37.561Z,69.40
2019-02-25T22:38:07.637Z,69.44
2019-02-25T22:40:39.008Z,69.31
2019-02-25T22:43:10.510Z,69.60
2019-02-25T22:45:42.094Z,70.15
2019-02-25T22:48:14.067Z,70.61
2019-02-25T22:50:44.646Z,70.74
2019-02-25T22:53:15.088Z,71.93
2019-02-25T22:55:47.843Z,72.20
2019-02-25T22:58:17.690Z,72.40
2019-02-25T23:00:50.292Z,72.36
2019-02-25T23:03:22.730Z,71.87
2019-02-25T23:05:55.074Z,72.26
2019-02-25T23:08:25.932Z,72.82
2019-02-25T23:14:58.762Z,73.83
2019-02-25T23:17:31.105Z,72.57
2019-02-25T23:20:02.645Z,73.34
2019-02-25T23:22:35.032Z,72.76
2019-02-25T23:25:06.078Z,73.42
2019-02-25T23:27:37.230Z,73.38
2019-02-25T23:30:09.086Z,73.31
2019-02-25T23:32:39.580Z,73.62
2019-02-25T23:35:13.666Z,73.39
2019-02-25T23:37:45.144Z,73.33
2019-02-25T23:40:16.641Z,73.43
2019-02-25T23:42:48.967Z,73.39
2019-02-25T23:45:21.115Z,73.66
2019-02-25T23:47:55.510Z,73.36
2019-02-25T23:50:25.103Z,73.67
2019-02-25T23:52:55.396Z,73.61
2019-02-25T23:55:27.757Z,74.39
2019-02-25T23:57:58.033Z,74.63
